Time;durP1;ratioP1;P1;durP2;ratioP2;P2;SDS_P1;SDS_P2;PMS_P1;PMS_P2;Temp;Humidity;BMP_temperature;BMP_pressure;BME280_temperature;BME280_humidity;BME280_pressure;Samples;Min_cycle;Max_cycle;Signal;HPM_P1;HPM_P2
2021/05/18 00:00:48;;;;;;;21.23;7.88;;;16.70;75.60;;;;;;5030264;28;20084;-68
2021/05/18 00:03:16;;;;;;;20.75;7.55;;;16.70;75.60;;;;;;5017074;28;20470;-68
2021/05/18 00:05:46;;;;;;;20.48;7.78;;;16.70;75.60;;;;;;5015510;28;20538;-69
2021/05/18 00:08:13;;;;;;;17.83;7.20;;;16.60;75.60;;;;;;5006331;28;20041;-68
2021/05/18 00:13:29;;;;;;;16.33;6.85;;;16.70;75.60;;;;;;5035111;28;20033;-70
2021/05/18 00:15:58;;;;;;;17.50;7.57;;;16.70;75.60;;;;;;5016819;28;20112;-70
2021/05/18 00:18:25;;;;;;;18.48;7.25;;;16.60;75.60;;;;;;5034959;28;20032;-70
2021/05/18 00:20:51;;;;;;;15.77;6.80;;;16.60;75.60;;;;;;5034892;28;20028;-69
2021/05/18 00:23:17;;;;;;;14.60;6.05;;;16.60;75.50;;;;;;5035502;28;20037;-69
2021/05/18 00:25:42;;;;;;;17.20;6.68;;;16.60;75.60;;;;;;5034245;28;20029;-70
2021/05/18 00:28:09;;;;;;;16.98;6.38;;;16.60;75.60;;;;;;5034669;28;20084;-69
2021/05/18 00:30:34;;;;;;;15.45;6.53;;;16.60;75.60;;;;;;5034762;28;20516;-69
2021/05/18 00:33:04;;;;;;;17.33;6.70;;;16.60;75.60;;;;;;5016313;28;20040;-69
2021/05/18 00:35:29;;;;;;;20.05;6.20;;;16.60;75.60;;;;;;5016071;28;20057;-69
2021/05/18 00:37:55;;;;;;;14.55;6.07;;;16.60;75.50;;;;;;5033847;28;20489;-70
2021/05/18 00:40:21;;;;;;;17.58;5.82;;;16.60;75.70;;;;;;5016632;28;20025;-70
2021/05/18 00:42:50;;;;;;;16.65;6.07;;;16.60;75.60;;;;;;5034528;28;20021;-69
2021/05/18 00:45:24;;;;;;;14.65;5.60;;;16.60;75.70;;;;;;5033467;28;20110;-70
2021/05/18 00:47:50;;;;;;;15.20;5.65;;;16.60;75.80;;;;;;5034065;28;20021;-69
2021/05/18 00:50:15;;;;;;;15.18;6.18;;;16.60;75.80;;;;;;5034420;28;20495;-69
2021/05/18 00:52:41;;;;;;;15.18;5.85;;;16.60;75.80;;;;;;5016549;28;20040;-69
2021/05/18 00:55:17;;;;;;;16.85;6.32;;;16.60;75.80;;;;;;5033952;28;20030;-69
2021/05/18 01:00:27;;;;;;;13.35;5.47;;;16.60;75.90;;;;;;5034242;28;20160;-69
2021/05/18 01:02:53;;;;;;;14.18;5.10;;;16.50;75.80;;;;;;5033773;28;20064;-69
2021/05/18 01:05:20;;;;;;;15.80;5.78;;;16.50;75.90;;;;;;5033550;28;20481;-69
2021/05/18 01:07:47;;;;;;;15.02;5.38;;;16.50;75.90;;;;;;5033320;28;20111;-69
2021/05/18 01:10:14;;;;;;;14.50;5.20;;;16.50;76.00;;;;;;5033752;28;20083;-69
2021/05/18 01:12:40;;;;;;;13.90;5.38;;;16.50;75.90;;;;;;5033123;28;20052;-69
2021/05/18 01:15:07;;;;;;;15.32;5.60;;;16.50;75.90;;;;;;5033595;28;20481;-69
2021/05/18 01:17:33;;;;;;;13.40;5.35;;;16.50;76.00;;;;;;5033990;28;20377;-70
2021/05/18 01:20:07;;;;;;;12.77;4.93;;;16.50;76.00;;;;;;5033855;28;20033;-69
2021/05/18 01:22:33;;;;;;;12.05;4.78;;;16.50;76.10;;;;;;5032643;28;20045;-69
2021/05/18 01:24:58;;;;;;;14.60;5.25;;;16.50;76.10;;;;;;5015405;28;20025;-68
2021/05/18 01:27:24;;;;;;;13.18;4.80;;;16.50;76.00;;;;;;5032978;28;20029;-69
2021/05/18 01:29:49;;;;;;;10.90;4.32;;;16.50;76.00;;;;;;5033542;28;20400;-70
2021/05/18 01:32:21;;;;;;;12.13;4.47;;;16.50;76.00;;;;;;5015622;28;20041;-69
2021/05/18 01:34:47;;;;;;;12.40;4.70;;;16.50;76.10;;;;;;5033309;28;20500;-69
2021/05/18 01:37:12;;;;;;;10.82;4.85;;;16.50;76.00;;;;;;5015342;28;20037;-69
2021/05/18 01:42:45;;;;;;;13.80;5.43;;;16.50;76.00;;;;;;5015405;28;20029;-68
2021/05/18 01:45:32;;;;;;;12.27;4.55;;;16.50;76.10;;;;;;5013366;28;20032;-69
2021/05/18 01:48:05;;;;;;;11.60;4.65;;;16.40;76.10;;;;;;5013067;28;20041;-69
2021/05/18 01:50:32;;;;;;;11.80;4.20;;;16.40;76.10;;;;;;5015525;28;20068;-69
2021/05/18 01:52:58;;;;;;;11.75;4.43;;;16.40;76.10;;;;;;4996859;28;20504;-69
2021/05/18 01:55:32;;;;;;;11.68;4.20;;;16.40;76.20;;;;;;5031429;28;20061;-69
2021/05/18 01:57:58;;;;;;;9.90;3.83;;;16.40;76.20;;;;;;5022105;28;20075;-69
2021/05/18 02:00:27;;;;;;;11.13;4.65;;;16.40;76.10;;;;;;5007322;28;20132;-69
2021/05/18 02:02:54;;;;;;;11.43;4.03;;;16.40;76.10;;;;;;5014446;28;20045;-69
2021/05/18 02:05:21;;;;;;;12.05;4.65;;;16.40;76.10;;;;;;5014932;28;20670;-69
2021/05/18 02:07:49;;;;;;;14.27;5.35;;;16.40;76.20;;;;;;5020206;28;20030;-70
2021/05/18 02:10:19;;;;;;;9.98;3.95;;;16.40;76.10;;;;;;5011781;28;20029;-69
2021/05/18 02:12:45;;;;;;;12.27;4.40;;;16.40;76.10;;;;;;5031425;28;20070;-68
2021/05/18 02:17:51;;;;;;;10.38;4.30;;;16.40;76.00;;;;;;5032593;28;20038;-68
2021/05/18 02:20:40;;;;;;;10.57;4.03;;;16.30;76.00;;;;;;5032676;28;20029;-68
2021/05/18 02:25:50;;;;;;;9.43;3.65;;;16.30;76.00;;;;;;5030864;28;20040;-68
2021/05/18 02:28:15;;;;;;;9.10;3.92;;;16.30;76.10;;;;;;5014844;28;20112;-69
2021/05/18 02:30:41;;;;;;;11.60;3.97;;;16.30;76.00;;;;;;5031881;28;20062;-70
2021/05/18 02:33:07;;;;;;;9.55;4.05;;;16.30;76.10;;;;;;5031904;28;20489;-72
2021/05/18 02:35:33;;;;;;;9.63;3.78;;;16.30;76.10;;;;;;5031309;28;20076;-69
2021/05/18 02:37:59;;;;;;;8.98;3.60;;;16.30;76.20;;;;;;5031711;28;20025;-68
2021/05/18 02:40:27;;;;;;;9.63;3.70;;;16.30;76.20;;;;;;5014641;28;20025;-69
2021/05/18 02:42:53;;;;;;;8.02;3.75;;;16.20;76.10;;;;;;5032302;28;20057;-68
2021/05/18 02:45:30;;;;;;;9.98;3.90;;;16.30;76.20;;;;;;5031171;28;20049;-68
2021/05/18 02:50:45;;;;;;;10.50;4.20;;;16.20;76.10;;;;;;5003535;28;20082;-69
2021/05/18 02:53:11;;;;;;;9.15;3.78;;;16.30;76.30;;;;;;5014050;28;20116;-70
2021/05/18 02:55:57;;;;;;;7.60;3.65;;;16.20;76.10;;;;;;5013576;28;20032;-69
2021/05/18 02:58:24;;;;;;;8.75;3.50;;;16.20;76.20;;;;;;5014025;28;20124;-69
2021/05/18 03:00:50;;;;;;;10.25;3.42;;;16.30;76.20;;;;;;5031802;28;20036;-69
2021/05/18 03:03:15;;;;;;;9.60;3.63;;;16.20;76.30;;;;;;5014167;28;20397;-70
2021/05/18 03:05:41;;;;;;;9.00;3.40;;;16.20;76.20;;;;;;5031129;28;20060;-69
2021/05/18 03:08:06;;;;;;;9.52;3.53;;;16.20;76.20;;;;;;5031519;28;20037;-69
2021/05/18 03:10:32;;;;;;;10.40;4.00;;;16.20;76.20;;;;;;5031602;28;20037;-69
2021/05/18 03:12:57;;;;;;;8.60;3.40;;;16.20;76.20;;;;;;5013536;28;20036;-68
2021/05/18 03:15:23;;;;;;;8.45;3.55;;;16.20;76.20;;;;;;5031241;28;20112;-69
2021/05/18 03:17:49;;;;;;;8.50;3.78;;;16.20;76.20;;;;;;5013776;28;20076;-69
2021/05/18 03:20:17;;;;;;;7.47;3.30;;;16.20;76.20;;;;;;5013988;28;20417;-69
2021/05/18 03:22:43;;;;;;;8.02;3.53;;;16.20;76.30;;;;;;5009875;28;20029;-69
2021/05/18 03:25:10;;;;;;;9.05;3.70;;;16.20;76.20;;;;;;5011454;28;20149;-69
2021/05/18 03:27:36;;;;;;;7.05;3.00;;;16.20;76.20;;;;;;5010338;28;20033;-69
2021/05/18 03:30:17;;;;;;;9.57;3.60;;;16.20;76.30;;;;;;5011951;28;20489;-68
2021/05/18 03:35:27;;;;;;;8.75;3.10;;;16.20;76.30;;;;;;5011175;28;20040;-69
2021/05/18 03:37:57;;;;;;;7.57;3.22;;;16.10;76.30;;;;;;5010078;28;20467;-68
2021/05/18 03:40:26;;;;;;;7.00;3.13;;;16.10;76.30;;;;;;5010953;28;20022;-68
2021/05/18 03:45:39;;;;;;;9.38;3.63;;;16.10;76.30;;;;;;5011405;28;20113;-69
2021/05/18 03:53:49;;;;;;;7.13;3.35;;;16.10;76.30;;;;;;5011409;28;20045;-68
2021/05/18 03:58:36;;;;;;;8.15;3.17;;;16.10;76.30;;;;;;5011276;28;20041;-68
2021/05/18 04:04:33;;;;;;;7.40;2.88;;;16.10;76.20;;;;;;5011354;28;20461;-68
2021/05/18 04:20:48;;;;;;;9.48;3.05;;;16.10;76.10;;;;;;5011429;28;20045;-69
2021/05/18 04:23:28;;;;;;;8.57;2.92;;;16.10;76.20;;;;;;5011122;28;20030;-68
2021/05/18 04:42:29;;;;;;;5.93;2.55;;;16.10;76.00;;;;;;5008896;28;20022;-69
2021/05/18 04:50:54;;;;;;;9.52;3.47;;;16.20;75.70;;;;;;4948029;28;20515;-68
2021/05/18 04:53:47;;;;;;;;;;;16.30;75.70;;;;;;4988982;28;20042;-68
2021/05/18 05:09:24;;;;;;;11.48;3.50;;;16.30;75.60;;;;;;5007522;28;20533;-68
2021/05/18 05:14:34;;;;;;;8.40;3.08;;;16.40;75.80;;;;;;5006740;28;20060;-68
2021/05/18 05:16:59;;;;;;;8.75;3.15;;;16.40;75.80;;;;;;4997137;28;20497;-70
2021/05/18 05:19:28;;;;;;;7.90;2.90;;;16.40;75.80;;;;;;4997807;28;20030;-68
2021/05/18 05:21:54;;;;;;;6.78;3.00;;;16.50;76.00;;;;;;4998330;28;20029;-70
2021/05/18 05:24:20;;;;;;;8.18;3.40;;;16.50;75.90;;;;;;4990579;28;20025;-71
2021/05/18 05:26:46;;;;;;;9.32;3.28;;;16.50;75.80;;;;;;5013586;28;20029;-70
2021/05/18 05:29:12;;;;;;;8.07;3.03;;;16.60;75.40;;;;;;5009035;28;20037;-69
2021/05/18 05:31:38;;;;;;;8.88;3.05;;;16.60;75.40;;;;;;5026292;28;20385;-70
2021/05/18 05:34:04;;;;;;;10.00;3.40;;;16.70;75.70;;;;;;5026150;28;20025;-69
2021/05/18 05:36:30;;;;;;;14.05;3.40;;;16.70;75.60;;;;;;5020248;28;20080;-69
2021/05/18 05:39:06;;;;;;;11.15;2.80;;;16.70;75.10;;;;;;5026352;28;20029;-71
2021/05/18 05:41:31;;;;;;;9.20;3.25;;;16.80;75.20;;;;;;4988896;28;20242;-68
2021/05/18 05:43:57;;;;;;;13.55;3.22;;;16.80;74.90;;;;;;5010635;28;20029;-70
2021/05/18 05:46:22;;;;;;;13.77;3.05;;;16.90;74.60;;;;;;4999570;28;20099;-69
2021/05/18 05:48:52;;;;;;;10.00;2.95;;;16.90;74.50;;;;;;5008208;28;20033;-71
2021/05/18 05:51:19;;;;;;;9.15;2.80;;;17.00;74.70;;;;;;5025823;28;20160;-68
2021/05/18 05:53:45;;;;;;;8.45;2.95;;;17.00;73.80;;;;;;5025346;28;20615;-70
2021/05/18 05:56:11;;;;;;;10.43;2.90;;;17.00;74.00;;;;;;5024028;28;20102;-69
2021/05/18 05:58:36;;;;;;;8.45;2.53;;;17.00;73.90;;;;;;5025946;28;20032;-69
2021/05/18 06:01:02;;;;;;;8.85;2.90;;;17.00;74.10;;;;;;5008223;28;20017;-70
2021/05/18 06:03:28;;;;;;;9.60;2.85;;;17.00;74.00;;;;;;5006692;28;20021;-71
2021/05/18 06:05:53;;;;;;;13.20;2.80;;;17.00;73.80;;;;;;5007923;28;20026;-68
2021/05/18 06:08:19;;;;;;;9.27;2.45;;;17.00;73.70;;;;;;5007808;28;20063;-70
2021/05/18 06:10:47;;;;;;;27.17;4.20;;;17.10;73.90;;;;;;5026465;28;20143;-70
2021/05/18 06:35:29;;;;;;;12.93;3.17;;;17.20;74.30;;;;;;5022383;28;20523;-69
2021/05/18 06:48:12;;;;;;;10.45;3.28;;;17.30;72.90;;;;;;5006134;28;20575;-70
2021/05/18 06:50:38;;;;;;;10.75;3.65;;;17.30;73.00;;;;;;5006489;28;20034;-70
2021/05/18 06:53:03;;;;;;;9.20;2.58;;;17.30;73.30;;;;;;5006114;28;20030;-71
2021/05/18 06:55:31;;;;;;;9.52;3.67;;;17.30;72.80;;;;;;5004430;28;20034;-69
2021/05/18 06:58:05;;;;;;;8.60;3.00;;;17.40;72.80;;;;;;5006184;28;20105;-69
2021/05/18 07:00:33;;;;;;;8.65;3.05;;;17.50;71.70;;;;;;5006213;28;20105;-69
2021/05/18 07:02:59;;;;;;;8.02;3.60;;;17.60;71.60;;;;;;5008766;28;20022;-70
2021/05/18 07:10:36;;;;;;;7.18;3.60;;;18.00;69.70;;;;;;5015245;28;20480;-67
2021/05/18 07:13:02;;;;;;;8.77;3.58;;;18.00;68.90;;;;;;5011330;28;20026;-69
2021/05/18 07:15:28;;;;;;;10.52;3.83;;;18.00;68.90;;;;;;5009712;28;20503;-70
2021/05/18 07:17:58;;;;;;;9.65;4.03;;;18.10;68.90;;;;;;5020296;28;20401;-69
2021/05/18 07:20:23;;;;;;;11.27;4.00;;;18.20;68.80;;;;;;5016006;28;20026;-70
2021/05/18 07:22:52;;;;;;;10.75;4.03;;;18.30;68.00;;;;;;5005780;28;20036;-70
2021/05/18 07:25:18;;;;;;;9.68;3.55;;;18.30;68.20;;;;;;5025129;28;20497;-70
2021/05/18 07:27:43;;;;;;;9.45;3.42;;;18.50;68.40;;;;;;5006709;28;20041;-64
2021/05/18 07:30:09;;;;;;;8.02;3.05;;;18.60;67.50;;;;;;4997992;28;20065;-65
2021/05/18 07:32:35;;;;;;;7.72;3.17;;;18.60;66.60;;;;;;5003373;28;20484;-65
2021/05/18 07:35:01;;;;;;;9.88;3.13;;;18.60;66.70;;;;;;5025048;28;20032;-64
2021/05/18 07:37:26;;;;;;;7.28;3.10;;;18.60;66.70;;;;;;5007593;28;20030;-65
2021/05/18 07:39:52;;;;;;;7.63;3.20;;;18.70;67.60;;;;;;4987682;28;20133;-64
2021/05/18 07:42:17;;;;;;;7.63;3.10;;;18.80;66.20;;;;;;5005540;28;20474;-65
2021/05/18 07:44:43;;;;;;;6.97;3.08;;;18.80;65.70;;;;;;5005220;28;20493;-64
2021/05/18 07:47:12;;;;;;;7.22;3.13;;;18.90;65.70;;;;;;4987655;28;20022;-65
2021/05/18 07:49:41;;;;;;;6.82;2.90;;;19.00;65.30;;;;;;5004709;28;20022;-65
2021/05/18 08:02:19;;;;;;;6.78;2.63;;;18.80;65.30;;;;;;5025156;28;20108;-65
2021/05/18 08:05:57;;;;;;;5.45;2.60;;;18.80;65.50;;;;;;5006101;28;20060;-65
2021/05/18 08:08:23;;;;;;;9.60;3.35;;;18.80;65.80;;;;;;5009997;28;20056;-64
2021/05/18 08:10:52;;;;;;;8.18;3.03;;;19.00;65.70;;;;;;5018053;28;20393;-65
2021/05/18 08:13:23;;;;;;;8.75;2.70;;;19.10;65.30;;;;;;4992199;28;20057;-65
2021/05/18 08:19:46;;;;;;;5.53;2.35;;;19.20;64.50;;;;;;5023310;28;20041;-65
2021/05/18 08:22:01;;;;;;;8.35;2.70;;;19.50;63.70;;;;;;4996665;28;20041;-67
2021/05/18 10:36:12;;;;;;;26.10;9.85;;;19.10;64.50;;;;;;5005746;28;20397;-67
2021/05/18 10:38:43;;;;;;;23.52;10.45;;;19.20;64.30;;;;;;5014261;28;20112;-65
2021/05/18 10:41:15;;;;;;;27.08;10.10;;;19.20;63.60;;;;;;4998850;28;20121;-66
2021/05/18 10:43:42;;;;;;;25.00;9.27;;;19.40;63.70;;;;;;5014271;28;20052;-65
2021/05/18 10:46:11;;;;;;;22.33;9.82;;;19.50;63.60;;;;;;5022669;28;20025;-66
2021/05/18 10:48:40;;;;;;;23.52;9.63;;;19.50;63.30;;;;;;5014729;28;20089;-66
2021/05/18 10:51:21;;;;;;;26.10;9.63;;;19.50;63.20;;;;;;5012709;28;20080;-65
2021/05/18 10:54:05;;;;;;;;;;;19.40;63.50;;;;;;5017199;28;20623;-65
2021/05/18 10:56:50;;;;;;;22.92;8.68;;;19.40;63.90;;;;;;5019744;28;20359;-65
2021/05/18 10:59:17;;;;;;;23.60;9.27;;;19.30;63.80;;;;;;5010661;28;20030;-66
2021/05/18 11:01:43;;;;;;;20.75;8.50;;;19.30;63.70;;;;;;5012099;28;20389;-66
2021/05/18 11:04:08;;;;;;;23.63;9.73;;;19.30;63.90;;;;;;5008856;28;20018;-65
2021/05/18 11:06:52;;;;;;;28.33;9.43;;;19.20;63.90;;;;;;5010841;28;20512;-65
2021/05/18 11:09:19;;;;;;;17.77;8.55;;;19.20;64.20;;;;;;5012093;28;20568;-66
2021/05/18 11:11:49;;;;;;;18.88;8.88;;;19.20;64.40;;;;;;4994621;28;20517;-66
2021/05/18 11:14:16;;;;;;;22.63;8.60;;;19.10;64.50;;;;;;5011830;28;20060;-66
2021/05/18 11:16:43;;;;;;;19.95;8.75;;;19.10;64.40;;;;;;5011979;28;20172;-66
2021/05/18 11:19:12;;;;;;;20.58;9.02;;;19.10;64.50;;;;;;5012066;28;20512;-66
2021/05/18 11:21:53;;;;;;;20.40;8.38;;;19.10;64.30;;;;;;5019383;28;20539;-66
2021/05/18 11:24:19;;;;;;;21.48;8.85;;;19.10;64.30;;;;;;5030743;28;20390;-66
2021/05/18 11:26:49;;;;;;;22.15;8.90;;;19.10;64.30;;;;;;5031690;28;20037;-67
2021/05/18 11:29:14;;;;;;;18.70;7.68;;;19.10;64.50;;;;;;5031572;28;20097;-67
2021/05/18 11:31:40;;;;;;;19.92;8.23;;;19.10;64.40;;;;;;5013902;28;20076;-66
2021/05/18 11:34:06;;;;;;;19.98;8.65;;;19.20;64.20;;;;;;5029970;28;20032;-66
2021/05/18 11:36:35;;;;;;;16.38;7.68;;;19.20;64.20;;;;;;5031455;28;20044;-66
2021/05/18 11:39:05;;;;;;;20.10;7.35;;;19.20;63.80;;;;;;5030612;28;20024;-68
2021/05/18 11:41:37;;;;;;;20.00;7.57;;;19.10;63.90;;;;;;5031608;28;20017;-66
2021/05/18 11:44:05;;;;;;;16.38;7.38;;;19.10;64.20;;;;;;5013391;28;20021;-65
2021/05/18 11:46:33;;;;;;;18.90;8.05;;;19.10;64.10;;;;;;5031506;28;20137;-66
2021/05/18 11:49:02;;;;;;;15.43;7.40;;;19.10;64.20;;;;;;5014361;28;20053;-65
2021/05/18 11:51:30;;;;;;;16.52;7.82;;;19.10;64.00;;;;;;5011425;28;20033;-66
2021/05/18 11:54:04;;;;;;;15.80;7.63;;;19.10;64.10;;;;;;5009969;28;20026;-66
2021/05/18 11:56:37;;;;;;;18.17;7.22;;;19.10;64.00;;;;;;5002913;28;20640;-66
2021/05/18 11:59:14;;;;;;;18.92;7.38;;;19.10;64.10;;;;;;5020876;28;20021;-66
2021/05/18 12:01:43;;;;;;;16.25;6.97;;;19.00;64.00;;;;;;5015028;28;20170;-66
2021/05/18 12:04:14;;;;;;;13.85;7.00;;;19.10;63.90;;;;;;5021091;28;20530;-66
2021/05/18 12:06:56;;;;;;;17.90;7.57;;;19.10;63.90;;;;;;5035209;28;20378;-67
2021/05/18 12:09:22;;;;;;;16.67;7.43;;;19.20;64.10;;;;;;5035168;28;20428;-66
2021/05/18 12:11:59;;;;;;;14.73;6.72;;;19.10;64.00;;;;;;5035113;28;20087;-66
2021/05/18 12:14:26;;;;;;;15.05;6.90;;;19.10;63.90;;;;;;5034393;28;20029;-66
2021/05/18 12:16:52;;;;;;;15.75;7.07;;;19.10;64.00;;;;;;5034649;28;20025;-66
2021/05/18 12:19:20;;;;;;;15.90;6.72;;;19.10;63.70;;;;;;5026170;28;20029;-67
2021/05/18 12:21:48;;;;;;;15.82;6.85;;;19.10;63.60;;;;;;5034271;28;20029;-66
2021/05/18 12:24:17;;;;;;;17.20;6.70;;;19.10;63.70;;;;;;5034422;28;20025;-66
2021/05/18 12:27:03;;;;;;;17.27;6.55;;;19.10;63.90;;;;;;5034423;28;20030;-68
2021/05/18 12:29:39;;;;;;;15.20;6.22;;;19.10;63.90;;;;;;5017116;28;20033;-67
2021/05/18 12:32:27;;;;;;;15.15;7.00;;;19.10;63.90;;;;;;5034748;28;20026;-67
2021/05/18 12:34:57;;;;;;;15.73;6.97;;;19.10;63.80;;;;;;5032361;28;20065;-67
2021/05/18 12:37:34;;;;;;;13.77;6.63;;;19.00;63.50;;;;;;5032757;28;20035;-66
2021/05/18 12:40:04;;;;;;;15.80;6.63;;;19.00;63.90;;;;;;5033507;28;20025;-67
2021/05/18 12:42:30;;;;;;;14.70;6.43;;;19.00;64.00;;;;;;5034661;28;20025;-66
2021/05/18 12:45:05;;;;;;;15.48;6.25;;;18.90;64.20;;;;;;5016496;28;20022;-68
2021/05/18 12:47:30;;;;;;;13.52;5.97;;;18.90;64.20;;;;;;5034847;28;20391;-67
2021/05/18 12:49:56;;;;;;;12.48;6.22;;;18.90;64.10;;;;;;5016734;28;20028;-67
2021/05/18 12:52:22;;;;;;;13.52;5.97;;;18.90;64.40;;;;;;5034411;28;20017;-67
2021/05/18 12:54:51;;;;;;;13.05;6.10;;;18.90;64.40;;;;;;5034079;28;20025;-66
2021/05/18 12:57:28;;;;;;;13.10;6.18;;;18.90;64.50;;;;;;5016581;28;20017;-66
2021/05/18 13:00:11;;;;;;;11.23;6.03;;;18.90;64.20;;;;;;5016551;28;20029;-67
2021/05/18 13:02:41;;;;;;;11.70;6.18;;;18.90;64.20;;;;;;5016376;28;20079;-67
2021/05/18 13:05:08;;;;;;;11.45;6.00;;;18.90;64.40;;;;;;5033974;28;20029;-67
2021/05/18 13:07:33;;;;;;;16.42;6.35;;;18.80;64.20;;;;;;5033764;28;20029;-66
2021/05/18 13:10:22;;;;;;;13.88;6.90;;;18.80;64.30;;;;;;5016067;28;20031;-65
2021/05/18 13:12:48;;;;;;;12.68;6.13;;;18.80;64.20;;;;;;5016228;28;20496;-66
2021/05/18 13:15:20;;;;;;;12.07;5.95;;;18.80;64.30;;;;;;5015885;28;20040;-66
2021/05/18 13:18:00;;;;;;;10.85;5.90;;;18.80;64.30;;;;;;5034032;28;20021;-66
2021/05/18 13:20:37;;;;;;;13.15;5.35;;;18.80;64.30;;;;;;5034039;28;20033;-66
2021/05/18 13:23:04;;;;;;;13.18;5.20;;;18.80;64.40;;;;;;5033731;28;20128;-66
2021/05/18 13:28:19;;;;;;;11.48;5.38;;;18.80;64.30;;;;;;5033843;28;20048;-68
2021/05/18 13:30:45;;;;;;;11.90;5.68;;;18.80;64.30;;;;;;5033829;28;20559;-66
2021/05/18 13:33:10;;;;;;;10.73;5.53;;;18.80;64.20;;;;;;5033564;28;20604;-67
2021/05/18 13:35:36;;;;;;;10.20;5.03;;;18.90;64.20;;;;;;5033821;28;20120;-66
2021/05/18 13:38:02;;;;;;;10.82;5.75;;;18.90;64.00;;;;;;5033508;28;20156;-66
2021/05/18 13:40:29;;;;;;;11.48;5.45;;;18.90;64.10;;;;;;5033574;28;20374;-67
2021/05/18 13:42:55;;;;;;;10.63;5.00;;;18.90;63.90;;;;;;5033472;28;20021;-67
2021/05/18 13:45:25;;;;;;;10.80;5.13;;;18.90;64.00;;;;;;5015352;28;20026;-67
2021/05/18 13:47:54;;;;;;;10.32;4.95;;;18.90;63.80;;;;;;5033513;28;20021;-66
2021/05/18 13:50:20;;;;;;;11.57;5.43;;;18.90;64.00;;;;;;5015596;28;20052;-67
2021/05/18 13:52:46;;;;;;;12.50;5.05;;;18.90;64.00;;;;;;5032724;28;20034;-66
2021/05/18 13:55:12;;;;;;;8.68;4.30;;;18.90;63.90;;;;;;5021554;28;20026;-69
2021/05/18 13:57:38;;;;;;;11.75;5.25;;;18.90;64.10;;;;;;5009819;28;20429;-67
2021/05/18 14:00:10;;;;;;;9.80;4.63;;;18.90;63.90;;;;;;5027279;28;20013;-67
2021/05/18 14:02:37;;;;;;;10.02;4.45;;;18.90;64.00;;;;;;5024218;28;20397;-66
2021/05/18 14:05:05;;;;;;;12.52;5.20;;;18.90;64.10;;;;;;4995200;28;20029;-67
2021/05/18 14:08:13;;;;;;;10.07;4.88;;;18.90;63.90;;;;;;5013167;28;20052;-67
2021/05/18 14:10:39;;;;;;;8.70;4.68;;;18.90;64.00;;;;;;5012279;28;20022;-66
2021/05/18 14:13:05;;;;;;;8.80;4.68;;;18.90;63.70;;;;;;5011793;28;20030;-66
2021/05/18 14:15:30;;;;;;;8.55;4.40;;;19.00;63.90;;;;;;4992772;28;20030;-67
2021/05/18 14:17:56;;;;;;;10.20;4.80;;;19.00;64.00;;;;;;4993602;28;20024;-66
2021/05/18 14:20:21;;;;;;;10.07;4.38;;;19.00;63.90;;;;;;5012010;28;20104;-66
2021/05/18 14:22:47;;;;;;;7.97;4.13;;;18.90;64.10;;;;;;5012295;28;20065;-66
2021/05/18 14:25:12;;;;;;;8.90;4.40;;;18.90;64.20;;;;;;5010838;28;20144;-66
2021/05/18 14:27:39;;;;;;;10.23;4.75;;;18.80;64.30;;;;;;5012214;28;20539;-66
2021/05/18 14:30:08;;;;;;;9.57;4.70;;;18.80;64.30;;;;;;5020635;28;20022;-66
2021/05/18 14:32:34;;;;;;;13.23;5.07;;;18.80;64.40;;;;;;5027033;28;20022;-68
2021/05/18 14:35:00;;;;;;;13.82;4.65;;;18.80;64.20;;;;;;5015587;28;20112;-66
2021/05/18 14:37:25;;;;;;;12.27;4.45;;;18.90;64.30;;;;;;5029235;28;20100;-66
2021/05/18 14:40:11;;;;;;;9.48;4.30;;;18.90;64.30;;;;;;5026981;28;20054;-66
2021/05/18 14:42:54;;;;;;;11.98;4.47;;;18.90;64.20;;;;;;5016313;28;20014;-66
2021/05/18 14:45:36;;;;;;;17.33;4.38;;;18.90;64.40;;;;;;5013096;28;20052;-68
2021/05/18 14:55:59;;;;;;;17.42;4.80;;;18.80;64.70;;;;;;4974570;28;20461;-66
2021/05/18 14:58:25;;;;;;;10.05;4.43;;;18.80;64.80;;;;;;5017567;28;20049;-66
2021/05/18 15:00:51;;;;;;;10.57;4.30;;;18.80;64.80;;;;;;5031028;28;20030;-66
2021/05/18 15:03:16;;;;;;;13.60;4.75;;;18.70;64.90;;;;;;5025675;28;20075;-66
2021/05/18 15:05:42;;;;;;;12.95;4.03;;;18.70;65.10;;;;;;5031048;28;20033;-66
2021/05/18 15:08:08;;;;;;;11.40;3.72;;;18.70;65.00;;;;;;5013754;28;20088;-66
2021/05/18 15:10:34;;;;;;;10.10;4.10;;;18.70;65.00;;;;;;5031349;28;20160;-66
2021/05/18 15:13:00;;;;;;;11.20;4.60;;;18.80;65.00;;;;;;5013144;28;20079;-67
2021/05/18 15:15:26;;;;;;;9.45;4.00;;;18.80;64.80;;;;;;5031123;28;20109;-68
2021/05/18 15:17:56;;;;;;;9.48;4.10;;;18.70;65.40;;;;;;5030475;28;20033;-67
2021/05/18 15:20:22;;;;;;;9.70;3.92;;;18.70;65.00;;;;;;5013974;28;20029;-67
2021/05/18 15:22:48;;;;;;;9.50;3.65;;;18.70;64.90;;;;;;5031327;28;20036;-66
2021/05/18 15:25:15;;;;;;;9.43;3.80;;;18.70;65.50;;;;;;5031463;28;20033;-66
2021/05/18 15:27:40;;;;;;;7.88;4.25;;;18.70;64.90;;;;;;5030638;28;20021;-66
2021/05/18 15:30:08;;;;;;;9.48;3.78;;;18.60;65.00;;;;;;5031336;28;20534;-66
2021/05/18 15:32:35;;;;;;;10.52;3.67;;;18.60;65.00;;;;;;5030243;28;20100;-66
2021/05/18 15:35:00;;;;;;;9.85;3.85;;;18.60;65.70;;;;;;5030311;28;20064;-66
2021/05/18 15:37:26;;;;;;;6.93;3.70;;;18.60;65.20;;;;;;5013256;28;20436;-66
2021/05/18 15:39:51;;;;;;;7.55;3.40;;;18.60;65.30;;;;;;5030876;28;20096;-66
2021/05/18 15:42:17;;;;;;;11.27;3.70;;;18.50;65.10;;;;;;5013401;28;20151;-66
2021/05/18 15:44:42;;;;;;;9.30;3.40;;;18.50;65.20;;;;;;5031092;28;20243;-66
2021/05/18 15:47:08;;;;;;;10.40;3.17;;;18.50;65.20;;;;;;5031130;28;20516;-68
2021/05/18 15:49:33;;;;;;;16.58;3.95;;;18.50;65.20;;;;;;5031312;28;20042;-70
2021/05/18 15:51:59;;;;;;;11.45;3.28;;;18.50;65.30;;;;;;5031448;28;20030;-66
2021/05/18 15:54:26;;;;;;;13.23;3.83;;;18.50;65.20;;;;;;5012799;28;20025;-66
2021/05/18 15:56:52;;;;;;;13.60;3.88;;;18.50;65.40;;;;;;5030759;28;20021;-67
2021/05/18 15:59:19;;;;;;;10.07;3.20;;;18.50;65.20;;;;;;5031393;28;20022;-67
2021/05/18 16:01:45;;;;;;;24.10;4.35;;;18.50;65.00;;;;;;5013337;28;20053;-67
2021/05/18 16:04:11;;;;;;;18.13;3.80;;;18.40;65.00;;;;;;5029340;28;20060;-66
2021/05/18 16:06:41;;;;;;;17.35;3.60;;;18.40;65.20;;;;;;5031060;28;20589;-66
2021/05/18 16:09:08;;;;;;;17.38;4.00;;;18.50;65.20;;;;;;5027179;28;20073;-66
2021/05/18 16:11:34;;;;;;;14.43;3.60;;;18.50;65.20;;;;;;5004305;28;20053;-66
2021/05/18 16:13:59;;;;;;;17.92;3.78;;;18.50;65.00;;;;;;5020257;28;20076;-66
2021/05/18 16:16:25;;;;;;;11.52;3.20;;;18.50;65.70;;;;;;5030080;28;20057;-67
2021/05/18 16:18:52;;;;;;;13.70;3.63;;;18.60;65.20;;;;;;5013459;28;20021;-66
2021/05/18 16:21:18;;;;;;;21.60;3.60;;;18.60;65.10;;;;;;5025549;28;20028;-68
2021/05/18 16:23:49;;;;;;;12.75;3.20;;;18.60;64.60;;;;;;5029834;28;20026;-68
2021/05/18 16:26:15;;;;;;;15.45;3.58;;;18.60;65.10;;;;;;5030820;28;20026;-66
2021/05/18 16:28:41;;;;;;;16.17;3.88;;;18.50;64.80;;;;;;5030978;28;20104;-68
2021/05/18 16:31:07;;;;;;;14.90;3.67;;;18.50;64.90;;;;;;5000979;28;20119;-67
2021/05/18 16:33:37;;;;;;;10.45;2.80;;;18.50;65.00;;;;;;5030677;28;20033;-68
2021/05/18 16:36:05;;;;;;;11.30;3.00;;;18.50;64.80;;;;;;5013200;28;20068;-69
2021/05/18 16:38:31;;;;;;;7.07;3.00;;;18.50;64.60;;;;;;5030761;28;20017;-67
2021/05/18 16:40:57;;;;;;;14.40;3.50;;;18.50;64.60;;;;;;5012294;28;20026;-68
2021/05/18 16:43:25;;;;;;;21.92;3.85;;;18.50;65.60;;;;;;5030139;28;20025;-66
2021/05/18 16:45:52;;;;;;;16.98;3.10;;;18.50;65.20;;;;;;5034171;28;20028;-67
2021/05/18 16:48:18;;;;;;;10.35;2.85;;;18.40;65.30;;;;;;5016110;28;20033;-67
2021/05/18 16:50:44;;;;;;;9.85;2.88;;;18.40;65.10;;;;;;5016187;28;20567;-67
2021/05/18 16:53:10;;;;;;;9.45;2.33;;;18.40;64.90;;;;;;5033737;28;20148;-67
2021/05/18 16:55:37;;;;;;;7.80;2.65;;;18.40;64.40;;;;;;5033413;28;20104;-67
2021/05/18 16:58:03;;;;;;;8.15;2.38;;;18.40;64.50;;;;;;5033757;28;20560;-67
2021/05/18 17:00:29;;;;;;;9.05;2.50;;;18.30;63.80;;;;;;5017342;28;20476;-67
2021/05/18 17:02:56;;;;;;;6.13;2.35;;;18.30;64.10;;;;;;5034225;28;20018;-70
2021/05/18 17:05:21;;;;;;;11.48;2.72;;;18.30;63.90;;;;;;5016270;28;20026;-67
2021/05/18 17:07:47;;;;;;;9.10;2.72;;;18.30;63.40;;;;;;5016408;28;20124;-67
2021/05/18 17:10:12;;;;;;;10.57;2.60;;;18.30;63.00;;;;;;5018915;28;20037;-66
2021/05/18 17:12:38;;;;;;;17.15;3.38;;;18.30;63.40;;;;;;5029570;28;20104;-69
2021/05/18 17:15:05;;;;;;;11.57;2.63;;;18.30;64.20;;;;;;5033322;28;20522;-66
2021/05/18 17:17:30;;;;;;;11.00;2.70;;;18.30;64.50;;;;;;5026057;28;20025;-67
2021/05/18 17:19:56;;;;;;;11.80;2.55;;;18.30;64.20;;;;;;5031396;28;20531;-72
2021/05/18 17:22:24;;;;;;;13.25;2.72;;;18.30;64.40;;;;;;5020390;28;20029;-67
2021/05/18 17:24:50;;;;;;;13.15;2.72;;;18.30;64.50;;;;;;5012532;28;20120;-67
2021/05/18 17:27:15;;;;;;;11.98;2.60;;;18.30;64.70;;;;;;5033305;28;20104;-67